createdAt,value
2019-01-17T00:00:19.086Z,48.07
2019-01-17T00:05:42.668Z,47.99
2019-01-17T00:11:15.522Z,48.09
2019-01-17T00:16:42.297Z,47.97
2019-01-17T00:22:23.936Z,47.96
2019-01-17T00:27:59.339Z,47.83
2019-01-17T00:33:28.503Z,47.94
2019-01-17T00:38:50.817Z,48.03
2019-01-17T00:44:17.110Z,47.83
2019-01-17T00:49:36.090Z,47.75
2019-01-17T00:55:08.569Z,47.87
2019-01-17T01:00:37.162Z,47.79
2019-01-17T01:06:00.497Z,47.38
2019-01-17T01:11:22.462Z,47.50
2019-01-17T01:17:10.949Z,47.36
2019-01-17T01:22:43.610Z,47.35
2019-01-17T01:28:07.050Z,46.84
2019-01-17T01:33:33.139Z,46.99
2019-01-17T01:38:56.641Z,47.04
2019-01-17T01:44:32.098Z,47.19
2019-01-17T01:49:50.671Z,47.30
2019-01-17T01:54:54.610Z,47.88
2019-01-17T01:59:58.701Z,48.06
2019-01-17T02:05:02.831Z,48.12
2019-01-17T02:10:07.971Z,47.81
2019-01-17T02:15:12.215Z,47.83
2019-01-17T02:20:17.025Z,47.77
2019-01-17T02:25:21.005Z,47.22
2019-01-17T02:30:24.940Z,46.70
2019-01-17T02:35:28.966Z,46.79
2019-01-17T02:40:32.977Z,47.00
2019-01-17T02:45:37.012Z,47.25
2019-01-17T02:50:40.936Z,47.12
2019-01-17T02:55:45.115Z,47.12
2019-01-17T03:00:49.121Z,47.80
2019-01-17T03:05:53.100Z,48.70
2019-01-17T03:10:57.378Z,49.43
2019-01-17T03:16:01.344Z,48.58
2019-01-17T03:21:05.915Z,51.43
2019-01-17T03:26:09.882Z,51.30
2019-01-17T03:31:13.906Z,51.42
2019-01-17T03:36:17.953Z,48.96
2019-01-17T03:41:23.015Z,49.88
2019-01-17T03:46:27.063Z,47.62
2019-01-17T03:51:31.095Z,47.02
2019-01-17T03:56:35.274Z,49.13
2019-01-17T04:01:39.253Z,50.32
2019-01-17T04:06:43.379Z,53.32
2019-01-17T04:11:47.461Z,52.63
2019-01-17T04:16:51.650Z,53.86
2019-01-17T04:21:56.630Z,54.31
2019-01-17T04:27:00.545Z,54.17
2019-01-17T04:32:04.572Z,53.54
2019-01-17T04:37:08.511Z,51.62
2019-01-17T04:42:12.599Z,50.56
2019-01-17T04:47:16.655Z,49.40
2019-01-17T04:52:20.648Z,55.10
2019-01-17T04:57:24.769Z,58.04
2019-01-17T05:02:28.683Z,59.84
2019-01-17T05:07:32.851Z,60.31
2019-01-17T05:12:37.019Z,60.55
2019-01-17T05:17:41.094Z,61.11
2019-01-17T05:22:46.147Z,61.53
2019-01-17T05:27:50.067Z,61.95
2019-01-17T05:32:54.197Z,61.06
2019-01-17T05:37:58.238Z,62.11
2019-01-17T05:43:04.064Z,62.69
2019-01-17T05:48:07.973Z,63.29
2019-01-17T05:53:12.012Z,64.77
2019-01-17T05:58:16.043Z,64.05
2019-01-17T06:03:20.236Z,64.78
2019-01-17T06:08:24.177Z,64.15
2019-01-17T06:13:28.375Z,63.25
2019-01-17T06:18:32.471Z,63.12
2019-01-17T06:23:36.739Z,64.00
2019-01-17T06:28:40.734Z,65.50
2019-01-17T06:33:44.940Z,65.54
2019-01-17T06:38:49.061Z,65.90
2019-01-17T06:43:53.067Z,65.76
2019-01-17T06:48:57.131Z,64.34
2019-01-17T06:54:01.148Z,64.68
2019-01-17T06:59:05.384Z,64.00
2019-01-17T07:04:09.332Z,62.52
2019-01-17T07:09:13.678Z,62.15
2019-01-17T07:14:17.877Z,62.68
2019-01-17T07:19:22.027Z,62.41
2019-01-17T07:24:29.226Z,62.08
2019-01-17T07:29:33.564Z,60.61
2019-01-17T07:34:37.555Z,58.43
2019-01-17T07:39:41.641Z,56.51
2019-01-17T07:44:46.762Z,55.03
2019-01-17T07:49:50.751Z,54.43
2019-01-17T07:54:54.714Z,55.00
2019-01-17T07:59:59.428Z,54.23
2019-01-17T08:05:04.014Z,54.30
2019-01-17T08:10:10.704Z,53.77
2019-01-17T08:15:15.208Z,54.28
2019-01-17T08:20:21.952Z,54.31
2019-01-17T08:25:26.490Z,54.69
2019-01-17T08:30:30.402Z,55.02
2019-01-17T08:35:34.671Z,55.07
2019-01-17T08:40:38.898Z,56.31
2019-01-17T08:45:43.133Z,56.44
2019-01-17T08:50:47.322Z,57.99
2019-01-17T08:55:51.779Z,58.94
2019-01-17T09:00:56.155Z,59.82
2019-01-17T09:06:00.290Z,61.15
2019-01-17T09:11:04.674Z,62.05
2019-01-17T09:16:08.658Z,62.06
2019-01-17T09:21:12.687Z,62.21
2019-01-17T09:26:17.174Z,61.35
2019-01-17T09:31:21.115Z,61.58
2019-01-17T09:36:25.328Z,61.48
2019-01-17T09:41:29.300Z,61.13
2019-01-17T09:46:34.476Z,61.37
2019-01-17T09:51:38.407Z,61.72
2019-01-17T09:56:42.629Z,62.00
2019-01-17T10:01:46.698Z,61.54
2019-01-17T10:06:50.766Z,60.55
2019-01-17T10:11:54.833Z,60.02
2019-01-17T10:17:42.800Z,59.45
2019-01-17T10:22:56.863Z,59.11
2019-01-17T10:28:26.312Z,58.84
2019-01-17T10:33:51.401Z,57.62
2019-01-17T10:39:36.822Z,56.68
2019-01-17T10:45:12.145Z,55.89
2019-01-17T10:50:31.328Z,55.61
2019-01-17T10:56:04.420Z,55.63
2019-01-17T11:01:49.677Z,55.06
2019-01-17T11:07:30.681Z,53.83
2019-01-17T11:13:24.413Z,51.45
2019-01-17T11:18:57.325Z,51.83
2019-01-17T11:24:31.537Z,49.88
2019-01-17T11:30:20.804Z,50.45
2019-01-17T11:36:02.250Z,51.62
2019-01-17T11:41:38.511Z,52.14
2019-01-17T11:47:41.299Z,50.36
2019-01-17T11:53:44.799Z,51.35
2019-01-17T11:59:28.666Z,51.57
2019-01-17T12:04:32.573Z,50.22
2019-01-17T12:09:38.230Z,50.34
2019-01-17T12:14:42.734Z,52.26
2019-01-17T12:19:46.730Z,51.08
2019-01-17T12:24:50.813Z,51.50
2019-01-17T12:29:55.237Z,50.12
2019-01-17T12:34:59.385Z,49.06
2019-01-17T12:40:04.655Z,47.45
2019-01-17T12:45:10.280Z,51.37
2019-01-17T12:50:18.475Z,46.00
2019-01-17T12:55:22.491Z,46.63
2019-01-17T13:00:26.664Z,47.14
2019-01-17T13:05:30.619Z,47.48
2019-01-17T13:10:34.746Z,45.25
2019-01-17T13:15:38.912Z,45.09
2019-01-17T13:20:42.970Z,44.66
2019-01-17T13:25:47.075Z,43.88
2019-01-17T13:30:51.588Z,44.88
2019-01-17T13:35:55.699Z,45.18
2019-01-17T13:40:59.751Z,43.18
2019-01-17T13:46:04.550Z,44.20
2019-01-17T13:51:08.494Z,44.37
2019-01-17T13:56:12.428Z,45.02
2019-01-17T14:01:16.559Z,47.34
2019-01-17T14:06:21.259Z,46.20
2019-01-17T14:11:25.397Z,46.59
2019-01-17T14:16:30.345Z,46.80
2019-01-17T14:21:34.446Z,47.78
2019-01-17T14:26:38.548Z,49.14
2019-01-17T14:31:43.296Z,50.48
2019-01-17T14:36:47.824Z,51.83
2019-01-17T14:41:52.021Z,52.08
2019-01-17T14:46:55.824Z,52.76
2019-01-17T14:51:59.878Z,55.15
2019-01-17T14:57:04.738Z,56.87
2019-01-17T15:02:09.201Z,57.93
2019-01-17T15:07:13.112Z,57.04
2019-01-17T15:12:18.353Z,57.90
2019-01-17T15:17:22.402Z,59.45
2019-01-17T15:22:26.671Z,59.84
2019-01-17T15:27:30.678Z,60.93
2019-01-17T15:32:35.285Z,61.13
2019-01-17T15:37:39.355Z,60.71
2019-01-17T15:42:43.404Z,61.46
2019-01-17T15:47:47.676Z,62.33
2019-01-17T15:52:52.211Z,62.90
2019-01-17T15:57:56.340Z,64.47
2019-01-17T16:03:01.555Z,64.96
2019-01-17T16:08:05.806Z,65.94
2019-01-17T16:13:09.835Z,67.26
2019-01-17T16:18:13.824Z,66.80
2019-01-17T16:23:17.783Z,66.82
2019-01-17T16:28:21.836Z,67.48
2019-01-17T16:33:26.478Z,66.79
2019-01-17T16:38:32.530Z,67.82
2019-01-17T16:43:37.508Z,68.06
2019-01-17T16:48:42.286Z,68.94
2019-01-17T16:53:49.773Z,68.72
2019-01-17T16:58:55.415Z,68.93
2019-01-17T17:04:00.179Z,69.04
2019-01-17T17:09:08.254Z,68.60
2019-01-17T17:14:12.238Z,69.32
2019-01-17T17:19:16.210Z,69.38
2019-01-17T17:24:21.570Z,68.97
2019-01-17T17:29:25.538Z,71.41
2019-01-17T17:34:30.546Z,69.71
2019-01-17T17:39:34.455Z,70.01
2019-01-17T17:44:38.446Z,70.18
2019-01-17T17:49:47.097Z,70.17
2019-01-17T17:54:51.513Z,69.85
2019-01-17T17:59:55.625Z,70.23
2019-01-17T18:04:59.805Z,70.33
2019-01-17T18:10:05.948Z,70.56
2019-01-17T18:15:11.557Z,70.60
2019-01-17T18:20:15.619Z,70.53
2019-01-17T18:25:20.478Z,70.38
2019-01-17T18:30:24.747Z,70.65
2019-01-17T18:35:29.105Z,70.79
2019-01-17T18:40:34.908Z,72.00
2019-01-17T18:45:42.160Z,71.85
2019-01-17T18:50:46.498Z,72.79
2019-01-17T18:55:55.756Z,72.73
2019-01-17T19:01:00.127Z,73.20
2019-01-17T19:06:05.325Z,73.63
2019-01-17T19:11:09.702Z,73.39
2019-01-17T19:16:13.865Z,73.46
2019-01-17T19:21:18.020Z,73.66
2019-01-17T19:26:21.980Z,72.67
2019-01-17T19:31:26.230Z,72.38
2019-01-17T19:36:30.777Z,72.81
2019-01-17T19:41:35.013Z,72.98
2019-01-17T19:46:39.623Z,73.63
2019-01-17T19:51:43.723Z,73.21
2019-01-17T19:56:49.605Z,72.07
2019-01-17T20:01:56.262Z,72.90
2019-01-17T20:07:00.322Z,73.04
2019-01-17T20:12:04.955Z,72.04
2019-01-17T20:17:09.492Z,71.10
2019-01-17T20:22:13.873Z,71.54
2019-01-17T20:27:19.160Z,71.79
2019-01-17T20:32:23.062Z,72.04
2019-01-17T20:37:27.601Z,71.85
2019-01-17T20:42:31.658Z,72.05
2019-01-17T20:47:35.626Z,72.57
2019-01-17T20:52:40.106Z,72.75
2019-01-17T20:57:45.705Z,72.35
2019-01-17T21:02:50.072Z,72.46
2019-01-17T21:07:54.394Z,72.81
2019-01-17T21:12:58.577Z,73.79
2019-01-17T21:18:02.925Z,74.51
2019-01-17T21:23:07.979Z,74.92
2019-01-17T21:28:12.347Z,75.09
2019-01-17T21:33:17.590Z,75.60
2019-01-17T21:38:21.915Z,76.34
2019-01-17T21:43:26.542Z,76.79
2019-01-17T21:48:31.449Z,76.76
2019-01-17T21:53:35.611Z,77.17
2019-01-17T21:58:39.627Z,77.45
2019-01-17T22:03:43.705Z,77.70
2019-01-17T22:08:48.873Z,78.28
2019-01-17T22:13:53.062Z,78.12
2019-01-17T22:18:57.055Z,78.08
2019-01-17T22:24:01.068Z,78.02
2019-01-17T22:29:05.146Z,78.23
2019-01-17T22:34:09.153Z,78.29
2019-01-17T22:39:13.945Z,78.18
2019-01-17T22:44:17.979Z,78.52
2019-01-17T22:49:21.998Z,78.37
2019-01-17T22:54:28.459Z,79.24
2019-01-17T22:59:32.566Z,79.66
2019-01-17T23:04:36.645Z,79.34
2019-01-17T23:09:40.648Z,78.92
2019-01-17T23:14:44.576Z,79.31
2019-01-17T23:19:48.565Z,79.39
2019-01-17T23:24:52.474Z,79.72
2019-01-17T23:29:56.589Z,80.08
2019-01-17T23:35:00.563Z,80.68
2019-01-17T23:40:05.643Z,80.72
2019-01-17T23:45:09.695Z,80.76
2019-01-17T23:50:13.943Z,80.65
2019-01-17T23:55:19.434Z,80.93
